Time;durP1;ratioP1;P1;durP2;ratioP2;P2;SDS_P1;SDS_P2;PMS_P1;PMS_P2;Temp;Humidity;BMP_temperature;BMP_pressure;BME280_temperature;BME280_humidity;BME280_pressure;Samples;Min_cycle;Max_cycle;Signal;HPM_P1;HPM_P2
2021/05/30 00:00:43;;;;;;;13.70;10.05;;;9.90;99.90;;;;;;4939165;29;20870;-78
2021/05/30 00:03:09;;;;;;;15.33;10.30;;;9.70;99.90;;;;;;4937435;29;20268;-78
2021/05/30 00:05:36;;;;;;;15.40;11.30;;;9.70;99.90;;;;;;4939337;29;20260;-78
2021/05/30 00:08:01;;;;;;;14.07;9.80;;;9.80;99.90;;;;;;4937799;29;20209;-78
2021/05/30 00:10:27;;;;;;;11.57;9.53;;;9.90;99.90;;;;;;4939104;29;20196;-78
2021/05/30 00:12:53;;;;;;;11.00;8.77;;;9.90;99.90;;;;;;4938046;29;20181;-78
2021/05/30 00:15:19;;;;;;;12.75;11.20;;;9.90;99.90;;;;;;4938974;29;20609;-78
2021/05/30 00:17:44;;;;;;;14.03;11.60;;;9.80;99.90;;;;;;4937694;29;20232;-78
2021/05/30 00:20:11;;;;;;;13.47;10.20;;;9.80;99.90;;;;;;4921990;29;20264;-78
2021/05/30 00:22:37;;;;;;;15.77;12.25;;;9.70;99.90;;;;;;4938973;29;20182;-78
2021/05/30 00:25:04;;;;;;;15.77;11.18;;;9.70;99.90;;;;;;4938751;29;20244;-79
2021/05/30 00:27:30;;;;;;;12.95;11.23;;;9.60;99.90;;;;;;4938627;29;20668;-78
2021/05/30 00:29:55;;;;;;;12.60;10.87;;;9.60;99.90;;;;;;4938952;29;20189;-78
2021/05/30 00:32:22;;;;;;;14.00;11.60;;;9.50;99.90;;;;;;4938946;29;20185;-78
2021/05/30 00:34:48;;;;;;;15.27;11.77;;;9.60;99.90;;;;;;4938290;29;20204;-78
2021/05/30 00:37:13;;;;;;;15.33;11.67;;;9.50;99.90;;;;;;4938595;29;20544;-78
2021/05/30 00:39:39;;;;;;;13.23;10.23;;;9.40;99.90;;;;;;4938655;29;20181;-78
2021/05/30 00:42:05;;;;;;;12.93;10.90;;;9.40;99.90;;;;;;4938538;29;20186;-78
2021/05/30 00:44:31;;;;;;;14.25;9.85;;;9.40;99.90;;;;;;4936757;29;20228;-78
2021/05/30 00:46:58;;;;;;;14.05;11.20;;;9.30;99.90;;;;;;4938455;29;20217;-77
2021/05/30 00:49:26;;;;;;;17.17;12.40;;;9.20;99.90;;;;;;4938100;29;20605;-78
2021/05/30 00:51:52;;;;;;;18.63;14.07;;;9.20;99.90;;;;;;4938312;29;20562;-78
2021/05/30 00:54:18;;;;;;;17.55;13.10;;;9.10;99.90;;;;;;4938010;29;20193;-78
2021/05/30 00:56:44;;;;;;;23.55;14.82;;;9.20;99.90;;;;;;4938229;29;20181;-77
2021/05/30 00:59:10;;;;;;;23.02;16.50;;;9.10;99.90;;;;;;4936856;29;20185;-78
2021/05/30 01:01:37;;;;;;;19.60;15.25;;;9.10;99.90;;;;;;4938106;29;20581;-77
2021/05/30 01:04:03;;;;;;;21.73;15.77;;;9.00;99.90;;;;;;4937753;29;20201;-77
2021/05/30 01:06:29;;;;;;;22.60;15.35;;;9.00;99.90;;;;;;4938202;29;20190;-78
2021/05/30 01:08:55;;;;;;;20.80;14.75;;;9.00;99.90;;;;;;4936824;29;20232;-77
2021/05/30 01:11:23;;;;;;;19.40;14.50;;;9.00;99.90;;;;;;4936669;29;20213;-78
2021/05/30 01:13:56;;;;;;;22.30;14.77;;;9.00;99.90;;;;;;4937589;29;20473;-78
2021/05/30 01:16:23;;;;;;;19.98;13.15;;;8.90;99.90;;;;;;4936631;29;20245;-77
2021/05/30 01:18:53;;;;;;;17.75;13.27;;;8.90;99.90;;;;;;4938092;29;20272;-78
2021/05/30 01:21:18;;;;;;;13.98;11.65;;;8.80;99.90;;;;;;4937704;29;20177;-78
2021/05/30 01:23:44;;;;;;;16.27;13.00;;;8.80;99.90;;;;;;4936023;29;20228;-78
2021/05/30 01:26:10;;;;;;;19.73;14.70;;;8.70;99.90;;;;;;4937735;29;20264;-78
2021/05/30 01:28:36;;;;;;;19.30;13.03;;;8.70;99.90;;;;;;4937671;29;20808;-78
2021/05/30 01:31:02;;;;;;;22.13;13.90;;;8.70;99.90;;;;;;4937713;29;20193;-77
2021/05/30 01:33:27;;;;;;;20.13;14.73;;;8.60;99.90;;;;;;4937244;29;20201;-78
2021/05/30 01:35:53;;;;;;;18.77;13.27;;;8.70;99.90;;;;;;4937738;29;20428;-77
2021/05/30 01:38:19;;;;;;;20.73;14.57;;;8.60;99.90;;;;;;4937592;29;20555;-78
2021/05/30 01:40:44;;;;;;;26.00;17.03;;;8.50;99.90;;;;;;4920498;29;20656;-77
2021/05/30 01:43:10;;;;;;;19.20;15.17;;;8.50;99.90;;;;;;4936962;29;20602;-77
2021/05/30 01:45:36;;;;;;;21.97;15.60;;;8.50;99.90;;;;;;4937202;29;20208;-78
2021/05/30 01:48:03;;;;;;;21.27;15.98;;;8.40;99.90;;;;;;4937219;29;20209;-77
2021/05/30 01:50:31;;;;;;;20.30;14.82;;;8.30;99.90;;;;;;4935950;29;20180;-77
2021/05/30 01:53:00;;;;;;;22.63;16.42;;;8.30;99.90;;;;;;4936897;29;20178;-77
2021/05/30 01:55:41;;;;;;;19.80;14.80;;;8.30;99.90;;;;;;4935942;29;20602;-78
2021/05/30 01:58:06;;;;;;;21.23;16.45;;;8.30;99.90;;;;;;4936033;29;20185;-78
2021/05/30 02:00:35;;;;;;;17.50;14.07;;;8.30;99.90;;;;;;4937096;29;20185;-78
2021/05/30 02:03:00;;;;;;;20.80;15.50;;;8.30;99.90;;;;;;4936651;29;20189;-78
2021/05/30 02:05:26;;;;;;;20.33;15.27;;;8.30;99.90;;;;;;4936741;29;20178;-78
2021/05/30 02:07:52;;;;;;;24.37;16.00;;;8.20;99.90;;;;;;4936697;29;20214;-78
2021/05/30 02:10:20;;;;;;;22.35;17.25;;;8.20;99.90;;;;;;4936634;29;20181;-78
2021/05/30 02:12:49;;;;;;;25.67;17.15;;;8.30;99.90;;;;;;4936519;29;20182;-79
2021/05/30 02:15:15;;;;;;;19.02;13.90;;;8.30;99.90;;;;;;4936671;29;20540;-78
2021/05/30 02:17:41;;;;;;;20.52;15.63;;;8.20;99.90;;;;;;4936786;29;20180;-78
2021/05/30 02:20:08;;;;;;;18.58;14.52;;;8.20;99.90;;;;;;4936786;29;20182;-78
2021/05/30 02:22:34;;;;;;;21.55;14.85;;;8.20;99.90;;;;;;4935470;29;20195;-78
2021/05/30 02:25:00;;;;;;;23.27;14.80;;;8.20;99.90;;;;;;4935247;29;20270;-78
2021/05/30 02:27:26;;;;;;;20.67;15.13;;;8.20;99.90;;;;;;4936564;29;20177;-78
2021/05/30 02:29:52;;;;;;;18.47;14.77;;;8.20;99.90;;;;;;4919858;29;20233;-78
2021/05/30 02:32:17;;;;;;;22.83;14.80;;;8.20;99.90;;;;;;4936539;29;20201;-78
2021/05/30 02:34:44;;;;;;;25.70;14.40;;;8.10;99.90;;;;;;4936130;29;20264;-77
2021/05/30 02:37:15;;;;;;;19.55;15.20;;;8.10;99.90;;;;;;4936516;29;20508;-77
2021/05/30 02:39:40;;;;;;;22.13;16.13;;;8.00;99.90;;;;;;4936584;29;20231;-77
2021/05/30 02:42:07;;;;;;;19.23;14.87;;;8.00;99.90;;;;;;4935209;29;20209;-78
2021/05/30 02:44:33;;;;;;;19.83;14.23;;;8.00;99.90;;;;;;4935913;29;20212;-77
2021/05/30 02:46:59;;;;;;;21.47;15.90;;;7.90;99.90;;;;;;4936379;29;20622;-77
2021/05/30 02:49:24;;;;;;;23.73;14.77;;;7.90;99.90;;;;;;4936306;29;20500;-77
2021/05/30 02:51:51;;;;;;;24.23;16.10;;;7.90;99.90;;;;;;4919184;29;20177;-77
2021/05/30 02:54:17;;;;;;;26.75;17.10;;;7.90;99.90;;;;;;4934624;29;20205;-77
2021/05/30 02:56:43;;;;;;;19.42;14.75;;;7.90;99.90;;;;;;4936320;29;20184;-77
2021/05/30 02:59:09;;;;;;;23.00;15.95;;;7.80;99.90;;;;;;4936187;29;20643;-77
2021/05/30 03:01:35;;;;;;;20.65;15.45;;;7.80;99.90;;;;;;4936208;29;20208;-77
2021/05/30 03:04:01;;;;;;;20.77;15.80;;;7.80;99.90;;;;;;4935624;29;20240;-77
2021/05/30 03:06:26;;;;;;;20.77;15.60;;;7.70;99.90;;;;;;4936068;29;20197;-77
2021/05/30 03:08:52;;;;;;;19.40;15.60;;;7.60;99.90;;;;;;4919118;29;20213;-78
2021/05/30 03:11:19;;;;;;;19.57;14.83;;;7.60;99.90;;;;;;4919071;29;20279;-77
2021/05/30 03:13:45;;;;;;;24.65;16.30;;;7.50;99.90;;;;;;4935686;29;20950;-77
2021/05/30 03:16:11;;;;;;;25.33;15.87;;;7.60;99.90;;;;;;4934735;29;20188;-77
2021/05/30 03:18:36;;;;;;;25.20;15.60;;;7.50;99.90;;;;;;4918983;29;20181;-77
2021/05/30 03:21:02;;;;;;;20.10;14.47;;;7.50;99.90;;;;;;4936077;29;20181;-77
2021/05/30 03:23:28;;;;;;;23.23;15.67;;;7.50;99.90;;;;;;4938486;29;20201;-77
2021/05/30 03:25:53;;;;;;;19.87;14.60;;;7.50;99.90;;;;;;4939844;29;20425;-77
2021/05/30 03:28:19;;;;;;;20.37;15.53;;;7.40;99.90;;;;;;4922627;29;20479;-77
2021/05/30 03:30:45;;;;;;;20.50;15.43;;;7.40;99.90;;;;;;4939736;29;20236;-77
2021/05/30 03:33:10;;;;;;;23.97;16.63;;;7.40;99.90;;;;;;4938230;29;20208;-77
2021/05/30 03:35:36;;;;;;;25.13;17.03;;;7.40;99.90;;;;;;4939641;29;20260;-77
2021/05/30 03:38:05;;;;;;;21.85;15.00;;;7.30;99.90;;;;;;4922862;29;20185;-77
2021/05/30 03:40:37;;;;;;;22.67;16.35;;;7.30;99.90;;;;;;4938365;29;20586;-78
2021/05/30 03:43:03;;;;;;;26.73;17.65;;;7.30;99.90;;;;;;4938299;29;20260;-77
2021/05/30 03:45:29;;;;;;;25.40;16.60;;;7.30;99.90;;;;;;4939503;29;20292;-77
2021/05/30 03:47:55;;;;;;;24.33;18.30;;;7.40;99.90;;;;;;4939644;29;20730;-76
2021/05/30 03:50:21;;;;;;;28.20;18.73;;;7.30;99.90;;;;;;4939732;29;20260;-77
2021/05/30 03:52:47;;;;;;;27.80;16.40;;;7.40;99.90;;;;;;4922098;29;21329;-77
2021/05/30 03:55:13;;;;;;;22.10;17.10;;;7.40;99.90;;;;;;4939419;29;20208;-77
2021/05/30 03:57:39;;;;;;;25.35;18.02;;;7.40;99.90;;;;;;4939317;29;20177;-77
2021/05/30 04:00:13;;;;;;;27.17;18.70;;;7.40;99.90;;;;;;4939334;29;20244;-77
2021/05/30 04:02:39;;;;;;;23.92;16.30;;;7.30;99.90;;;;;;4939160;29;20394;-78
2021/05/30 04:05:05;;;;;;;22.97;18.57;;;7.30;99.90;;;;;;4938837;29;20642;-77
2021/05/30 04:07:35;;;;;;;36.58;19.10;;;7.20;99.90;;;;;;4939119;29;20546;-78
2021/05/30 04:10:06;;;;;;;26.63;17.13;;;7.10;99.90;;;;;;4922348;29;20190;-76
2021/05/30 04:12:42;;;;;;;26.33;16.88;;;7.20;99.90;;;;;;4938080;29;20265;-76
2021/05/30 04:15:10;;;;;;;29.40;19.08;;;7.20;99.90;;;;;;4938653;29;20211;-77
2021/05/30 04:17:36;;;;;;;24.10;17.90;;;7.20;99.90;;;;;;4937474;29;20547;-76
2021/05/30 04:20:03;;;;;;;23.50;17.50;;;7.20;99.90;;;;;;4939085;29;20173;-76
2021/05/30 04:22:28;;;;;;;29.48;18.70;;;7.20;99.90;;;;;;4939107;29;20453;-77
2021/05/30 04:24:54;;;;;;;27.47;18.53;;;7.20;99.90;;;;;;4940318;29;20573;-77
2021/05/30 04:27:20;;;;;;;27.90;19.07;;;7.20;99.90;;;;;;4937595;29;20281;-76
2021/05/30 04:29:45;;;;;;;26.70;19.67;;;7.30;99.90;;;;;;4937540;29;20209;-76
2021/05/30 04:32:11;;;;;;;23.27;17.40;;;7.40;99.90;;;;;;4938743;29;20188;-76
2021/05/30 04:34:36;;;;;;;31.73;20.00;;;7.40;99.90;;;;;;4938021;29;20749;-76
2021/05/30 04:37:02;;;;;;;29.93;20.00;;;7.40;99.90;;;;;;4938597;29;20189;-76
2021/05/30 04:39:31;;;;;;;26.90;18.87;;;7.50;99.90;;;;;;4937437;29;20216;-76
2021/05/30 04:42:02;;;;;;;33.67;19.77;;;7.60;99.90;;;;;;4937280;29;21000;-76
2021/05/30 04:44:28;;;;;;;31.80;20.23;;;7.60;99.90;;;;;;4937892;29;20212;-76
2021/05/30 04:46:54;;;;;;;26.77;17.23;;;7.60;99.90;;;;;;4937382;29;20182;-75
2021/05/30 04:49:19;;;;;;;27.13;18.90;;;7.70;99.90;;;;;;4937177;29;20209;-76
2021/05/30 04:51:45;;;;;;;26.90;17.67;;;7.80;99.90;;;;;;4937306;29;20181;-76
2021/05/30 04:54:10;;;;;;;24.40;16.83;;;7.90;99.90;;;;;;4937076;29;20193;-76
2021/05/30 04:56:36;;;;;;;27.30;17.47;;;7.90;99.90;;;;;;4937202;29;20178;-76
2021/05/30 04:59:02;;;;;;;30.47;20.10;;;8.10;99.90;;;;;;4935986;29;20655;-76
2021/05/30 05:01:27;;;;;;;32.80;21.37;;;8.20;99.90;;;;;;4937184;29;20217;-76
2021/05/30 05:03:53;;;;;;;34.27;23.10;;;8.40;99.90;;;;;;4936692;29;20596;-76
2021/05/30 05:06:19;;;;;;;33.93;21.63;;;8.60;99.90;;;;;;4937070;29;20603;-76
2021/05/30 05:08:46;;;;;;;28.87;21.47;;;8.80;99.90;;;;;;4936988;29;20209;-76
2021/05/30 05:11:11;;;;;;;30.30;20.85;;;9.00;99.90;;;;;;4936930;29;20173;-75
2021/05/30 05:13:37;;;;;;;28.83;20.80;;;9.20;99.90;;;;;;4936567;29;20211;-76
2021/05/30 05:16:03;;;;;;;31.27;21.30;;;9.20;99.90;;;;;;4936891;29;20182;-76
2021/05/30 05:18:32;;;;;;;29.13;20.00;;;9.30;99.90;;;;;;4936974;29;20730;-76
2021/05/30 05:20:59;;;;;;;26.98;18.30;;;9.40;99.90;;;;;;4936875;29;20178;-76
2021/05/30 05:23:26;;;;;;;25.73;18.23;;;9.50;99.90;;;;;;4936366;29;20204;-76
2021/05/30 05:25:54;;;;;;;23.17;17.85;;;9.60;99.90;;;;;;4937060;29;20216;-75
2021/05/30 05:28:21;;;;;;;26.63;18.17;;;9.70;99.90;;;;;;4936847;29;20213;-76
2021/05/30 05:30:48;;;;;;;22.42;16.88;;;9.70;99.90;;;;;;4936700;29;20173;-75
2021/05/30 05:33:13;;;;;;;24.98;17.40;;;9.70;99.90;;;;;;4936237;29;20241;-76
2021/05/30 05:35:39;;;;;;;24.80;17.77;;;9.80;99.90;;;;;;4936627;29;20611;-76
2021/05/30 05:38:05;;;;;;;28.00;20.27;;;9.90;99.90;;;;;;4936716;29;20200;-76
2021/05/30 05:40:31;;;;;;;26.63;20.47;;;10.00;99.90;;;;;;4935446;29;20265;-76
2021/05/30 05:42:56;;;;;;;23.73;18.27;;;10.10;99.90;;;;;;4936242;29;20236;-76
2021/05/30 05:45:23;;;;;;;28.70;18.23;;;10.20;99.90;;;;;;4899989;29;1062786;-75
2021/05/30 05:47:50;;;;;;;23.13;17.58;;;10.40;99.90;;;;;;4937278;29;20182;-76
2021/05/30 05:50:18;;;;;;;24.92;16.27;;;10.40;99.90;;;;;;4936386;29;20186;-75
2021/05/30 05:52:44;;;;;;;17.90;13.73;;;10.50;99.90;;;;;;4936917;29;20181;-79
2021/05/30 05:55:11;;;;;;;18.35;14.20;;;10.60;99.90;;;;;;4937194;29;20438;-75
2021/05/30 05:57:38;;;;;;;16.48;13.20;;;10.70;99.90;;;;;;4936970;29;20603;-75
2021/05/30 06:00:09;;;;;;;18.25;13.65;;;10.70;99.90;;;;;;4937130;29;20177;-76
2021/05/30 06:02:35;;;;;;;19.00;12.30;;;10.90;99.90;;;;;;4937009;29;20552;-76
2021/05/30 06:05:00;;;;;;;15.67;11.83;;;10.90;99.90;;;;;;4935569;29;20245;-77
2021/05/30 06:07:26;;;;;;;17.00;11.30;;;11.00;99.90;;;;;;4935721;29;20181;-76
2021/05/30 06:09:51;;;;;;;15.40;11.97;;;11.10;99.90;;;;;;4936780;29;20738;-76
2021/05/30 06:12:18;;;;;;;12.73;10.30;;;11.10;99.90;;;;;;4936863;29;20198;-76
2021/05/30 06:14:45;;;;;;;14.20;11.43;;;11.30;99.90;;;;;;4936492;29;20213;-75
2021/05/30 06:17:12;;;;;;;17.20;11.77;;;11.20;99.90;;;;;;4936755;29;20225;-76
2021/05/30 06:19:37;;;;;;;14.33;10.97;;;11.30;99.90;;;;;;4936793;29;20508;-76
2021/05/30 06:22:04;;;;;;;16.50;10.80;;;11.40;99.90;;;;;;4936636;29;20487;-75
2021/05/30 06:24:31;;;;;;;12.02;10.80;;;11.50;99.90;;;;;;4935362;29;20635;-76
2021/05/30 06:26:58;;;;;;;17.92;11.73;;;11.60;99.90;;;;;;4936902;29;20210;-76
2021/05/30 06:29:23;;;;;;;13.05;11.75;;;11.70;99.90;;;;;;4936493;29;20213;-76
2021/05/30 06:31:49;;;;;;;12.90;11.50;;;11.90;99.90;;;;;;4935297;29;20269;-76
2021/05/30 06:34:15;;;;;;;18.10;11.20;;;12.00;99.90;;;;;;4936159;29;20189;-76
2021/05/30 06:36:45;;;;;;;12.57;11.17;;;12.10;99.90;;;;;;4936571;29;20488;-77
2021/05/30 06:39:11;;;;;;;17.10;13.33;;;12.20;99.90;;;;;;4936595;29;20428;-76
2021/05/30 06:41:38;;;;;;;15.50;11.40;;;12.20;99.90;;;;;;4936583;29;20464;-76
2021/05/30 06:44:05;;;;;;;13.17;10.63;;;12.30;99.90;;;;;;4935837;29;20492;-77
2021/05/30 06:46:32;;;;;;;17.53;12.73;;;12.30;99.90;;;;;;4936381;29;20445;-76
2021/05/30 06:48:57;;;;;;;17.40;13.10;;;12.40;99.90;;;;;;4936289;29;20476;-75
2021/05/30 06:51:28;;;;;;;14.80;11.77;;;12.40;99.90;;;;;;4936247;29;20396;-76
2021/05/30 06:53:54;;;;;;;15.23;12.60;;;12.50;99.90;;;;;;4935908;29;20433;-76
2021/05/30 06:56:20;;;;;;;23.27;13.70;;;12.60;99.90;;;;;;4936184;29;20512;-76
2021/05/30 06:58:45;;;;;;;16.57;12.00;;;12.70;99.90;;;;;;4935119;29;20181;-77
2021/05/30 07:01:12;;;;;;;16.13;12.33;;;12.70;99.90;;;;;;4936192;29;20555;-76
2021/05/30 07:03:38;;;;;;;16.87;12.80;;;12.70;99.90;;;;;;4934445;29;20570;-75
2021/05/30 07:06:05;;;;;;;18.47;12.57;;;12.80;99.90;;;;;;4934802;29;20426;-76
2021/05/30 07:08:30;;;;;;;14.77;12.20;;;12.70;99.90;;;;;;4936073;29;20831;-77
2021/05/30 07:10:56;;;;;;;14.70;11.73;;;12.80;99.90;;;;;;4936047;29;20421;-77
2021/05/30 07:13:22;;;;;;;16.37;10.90;;;12.90;99.90;;;;;;4935593;29;20201;-77
2021/05/30 07:15:52;;;;;;;16.27;10.97;;;13.10;99.90;;;;;;4935905;29;20639;-77
2021/05/30 07:18:22;;;;;;;15.20;9.90;;;13.30;99.90;;;;;;4934478;29;20439;-77
2021/05/30 07:20:48;;;;;;;15.57;10.90;;;13.50;99.90;;;;;;4935942;29;20506;-77
2021/05/30 07:23:15;;;;;;;13.07;10.00;;;13.60;99.90;;;;;;4934633;29;20489;-76
2021/05/30 07:25:40;;;;;;;18.23;11.80;;;13.70;99.90;;;;;;4935924;29;20952;-76
2021/05/30 07:28:06;;;;;;;15.37;12.07;;;13.80;99.90;;;;;;4934530;29;20443;-77
2021/05/30 07:30:32;;;;;;;13.57;11.03;;;13.80;99.90;;;;;;4936209;29;20177;-77
2021/05/30 07:32:58;;;;;;;14.43;10.27;;;13.70;99.90;;;;;;4934439;29;20403;-77
2021/05/30 07:35:24;;;;;;;10.47;9.30;;;13.70;99.90;;;;;;4934482;29;20433;-76
2021/05/30 07:37:50;;;;;;;12.20;9.40;;;14.10;99.90;;;;;;4935780;29;20565;-77
2021/05/30 07:40:16;;;;;;;12.20;9.50;;;14.30;99.90;;;;;;4935925;29;20169;-77
2021/05/30 07:42:42;;;;;;;10.30;8.60;;;14.20;99.90;;;;;;4934553;29;20473;-76
2021/05/30 07:45:08;;;;;;;11.27;8.40;;;14.40;99.90;;;;;;4935468;29;20481;-76
2021/05/30 07:47:34;;;;;;;9.13;7.80;;;14.60;99.90;;;;;;4935667;29;20418;-77
2021/05/30 07:49:59;;;;;;;9.93;7.30;;;14.70;99.90;;;;;;4935669;29;20465;-77
2021/05/30 07:52:25;;;;;;;8.80;7.53;;;14.70;99.90;;;;;;4934499;29;20186;-77
2021/05/30 07:54:51;;;;;;;8.50;7.33;;;15.00;99.90;;;;;;4934188;29;20205;-78
2021/05/30 07:57:17;;;;;;;7.83;7.03;;;15.10;99.90;;;;;;4935982;29;20174;-78
2021/05/30 07:59:42;;;;;;;7.30;6.57;;;15.30;99.90;;;;;;4934520;29;20641;-77
2021/05/30 08:02:08;;;;;;;7.93;5.30;;;15.50;99.90;;;;;;4935862;29;20225;-77
2021/05/30 08:04:33;;;;;;;8.23;6.83;;;15.80;99.90;;;;;;4934057;29;20221;-77
2021/05/30 08:07:00;;;;;;;8.83;6.07;;;15.90;99.90;;;;;;4934517;29;20268;-77
2021/05/30 08:09:26;;;;;;;7.33;5.47;;;16.00;99.90;;;;;;4938005;29;20202;-77
2021/05/30 08:11:53;;;;;;;10.17;6.87;;;16.20;99.90;;;;;;4939239;29;20417;-75
2021/05/30 08:14:19;;;;;;;7.80;6.90;;;16.20;99.90;;;;;;4938662;29;20437;-75
2021/05/30 08:16:45;;;;;;;7.20;5.70;;;16.30;99.90;;;;;;4938879;29;20954;-76
2021/05/30 08:19:12;;;;;;;6.67;6.00;;;16.30;99.90;;;;;;4939037;29;20427;-76
2021/05/30 08:21:38;;;;;;;11.60;6.50;;;16.50;99.90;;;;;;4938979;29;20567;-76
2021/05/30 08:24:05;;;;;;;7.00;6.33;;;16.60;99.90;;;;;;4938676;29;20561;-75
2021/05/30 08:26:30;;;;;;;6.77;6.17;;;16.60;99.90;;;;;;4938658;29;20174;-78
2021/05/30 08:28:56;;;;;;;6.10;5.50;;;16.70;99.90;;;;;;4938591;29;20469;-75
2021/05/30 08:31:22;;;;;;;6.80;5.40;;;16.50;99.90;;;;;;4937692;29;20189;-77
2021/05/30 08:33:47;;;;;;;8.40;6.47;;;16.60;99.90;;;;;;4938445;29;20248;-78
2021/05/30 08:36:13;;;;;;;6.57;5.00;;;17.10;99.90;;;;;;4937501;29;20182;-77
2021/05/30 08:38:38;;;;;;;6.50;5.60;;;17.30;99.90;;;;;;4937373;29;20726;-78
2021/05/30 08:41:04;;;;;;;7.60;5.30;;;17.40;99.90;;;;;;4937387;29;20189;-77
2021/05/30 08:43:30;;;;;;;6.33;5.70;;;17.90;99.90;;;;;;4936946;29;20578;-78
2021/05/30 08:45:56;;;;;;;7.97;5.30;;;18.00;99.90;;;;;;4938287;29;20208;-78
2021/05/30 08:48:23;;;;;;;7.47;5.87;;;18.50;99.90;;;;;;4938490;29;20205;-78
2021/05/30 08:51:02;;;;;;;5.40;4.90;;;18.90;99.90;;;;;;4938619;29;20465;-78
2021/05/30 08:53:33;;;;;;;6.40;5.17;;;18.70;99.90;;;;;;4938049;29;21006;-78
2021/05/30 08:56:00;;;;;;;5.40;4.90;;;18.80;99.90;;;;;;4938463;29;20440;-78
2021/05/30 08:58:43;;;;;;;6.67;4.63;;;19.00;99.90;;;;;;4938227;29;20410;-78
2021/05/30 09:01:15;;;;;;;6.13;5.53;;;19.30;99.90;;;;;;4936967;29;20417;-78
2021/05/30 09:04:07;;;;;;;5.30;4.47;;;18.80;99.90;;;;;;4936325;29;20455;-78
2021/05/30 09:06:37;;;;;;;4.40;4.00;;;18.60;99.90;;;;;;4938110;29;20416;-78
2021/05/30 09:09:08;;;;;;;4.30;4.00;;;19.30;99.90;;;;;;4937925;29;20488;-78
2021/05/30 09:11:45;;;;;;;4.77;4.37;;;19.70;99.90;;;;;;4938228;29;20431;-78
2021/05/30 09:14:19;;;;;;;5.50;3.70;;;20.10;99.90;;;;;;4937717;29;20429;-78
2021/05/30 09:16:49;;;;;;;4.40;4.00;;;19.80;99.90;;;;;;4937839;29;20935;-78
2021/05/30 09:19:33;;;;;;;3.70;3.40;;;20.40;99.90;;;;;;4935939;29;20457;-79
2021/05/30 09:22:26;;;;;;;6.47;3.70;;;20.20;99.90;;;;;;4937454;29;20441;-78
2021/05/30 09:24:51;;;;;;;4.00;2.93;;;20.60;99.90;;;;;;4936075;29;20452;-77
2021/05/30 09:27:19;;;;;;;4.97;3.50;;;20.90;99.90;;;;;;4936155;29;20430;-78
2021/05/30 09:29:45;;;;;;;2.93;2.73;;;20.70;99.90;;;;;;4937377;29;20209;-78
2021/05/30 09:32:10;;;;;;;4.20;3.20;;;20.70;99.90;;;;;;4937537;29;20413;-78
2021/05/30 09:34:38;;;;;;;3.93;2.80;;;21.30;99.90;;;;;;4937137;29;20452;-78
2021/05/30 09:37:07;;;;;;;3.50;3.20;;;21.30;99.90;;;;;;4936374;29;20528;-78
2021/05/30 09:39:48;;;;;;;4.43;2.80;;;20.80;99.90;;;;;;4937573;29;20417;-74
2021/05/30 09:42:40;;;;;;;3.13;2.73;;;20.90;99.90;;;;;;4937487;29;20425;-73
2021/05/30 09:45:12;;;;;;;2.43;2.10;;;21.60;99.90;;;;;;4935048;29;20846;-74
2021/05/30 09:47:44;;;;;;;3.57;2.40;;;21.10;99.90;;;;;;4937171;29;20430;-74
2021/05/30 09:50:16;;;;;;;2.80;2.50;;;21.00;99.90;;;;;;4937204;29;20421;-73
2021/05/30 09:52:43;;;;;;;6.20;3.50;;;21.20;99.90;;;;;;4937053;29;20910;-73
2021/05/30 09:55:12;;;;;;;4.33;2.53;;;21.80;99.90;;;;;;4936481;29;20441;-73
2021/05/30 09:57:38;;;;;;;2.80;2.60;;;21.40;99.90;;;;;;4937078;29;21014;-73
2021/05/30 10:00:05;;;;;;;2.03;1.93;;;21.40;99.90;;;;;;4937250;29;20425;-74
2021/05/30 10:02:32;;;;;;;5.93;2.40;;;22.40;99.90;;;;;;4936107;29;20440;-74
2021/05/30 10:04:59;;;;;;;3.90;2.40;;;22.40;99.90;;;;;;4936616;29;20437;-74
2021/05/30 10:07:26;;;;;;;2.77;2.57;;;22.40;99.90;;;;;;4937041;29;20418;-74
2021/05/30 10:09:52;;;;;;;3.10;2.50;;;22.30;99.90;;;;;;4935533;29;20847;-74
2021/05/30 10:12:18;;;;;;;2.73;2.53;;;21.90;99.90;;;;;;4936787;29;20520;-73
2021/05/30 10:14:44;;;;;;;2.70;1.87;;;22.70;99.90;;;;;;4935288;29;20216;-74
2021/05/30 10:17:11;;;;;;;2.87;2.27;;;22.60;99.70;;;;;;4934629;29;20922;-73
2021/05/30 10:19:46;;;;;;;3.27;1.80;;;22.10;99.90;;;;;;4951175;29;20213;-74
2021/05/30 10:22:12;;;;;;;1.90;1.80;;;22.60;99.70;;;;;;4936788;29;20953;-73
2021/05/30 10:24:43;;;;;;;2.07;1.97;;;22.70;96.70;;;;;;4936176;29;20521;-73
2021/05/30 10:27:16;;;;;;;2.20;2.00;;;22.60;98.80;;;;;;4935779;29;20516;-74
2021/05/30 10:30:11;;;;;;;3.27;2.63;;;23.30;97.90;;;;;;4936277;29;20540;-73
2021/05/30 10:32:38;;;;;;;2.87;2.50;;;23.50;96.40;;;;;;4935823;29;20417;-73
2021/05/30 10:35:11;;;;;;;2.60;2.40;;;23.60;95.70;;;;;;4950954;29;20457;-74
2021/05/30 10:37:46;;;;;;;2.60;2.20;;;24.30;94.50;;;;;;4934844;29;20405;-73
2021/05/30 10:40:20;;;;;;;2.23;2.00;;;24.20;93.80;;;;;;4926371;29;20475;-74
2021/05/30 10:43:09;;;;;;;2.40;2.20;;;23.60;88.10;;;;;;4935770;29;20432;-73
2021/05/30 10:45:35;;;;;;;2.30;2.00;;;22.60;90.60;;;;;;4934979;29;20500;-73
2021/05/30 10:48:03;;;;;;;4.37;2.23;;;22.40;91.60;;;;;;4934660;29;20414;-73
2021/05/30 10:50:38;;;;;;;1.90;1.70;;;23.60;87.90;;;;;;4936383;29;20536;-74
2021/05/30 10:53:24;;;;;;;2.40;2.20;;;24.00;92.40;;;;;;4935795;29;20441;-74
2021/05/30 10:55:51;;;;;;;2.13;1.93;;;24.30;90.70;;;;;;4935837;29;20785;-72
2021/05/30 10:58:18;;;;;;;2.17;1.97;;;24.20;88.40;;;;;;4936036;29;20958;-72
2021/05/30 11:00:44;;;;;;;1.93;1.80;;;24.20;85.90;;;;;;4936148;29;20881;-73
2021/05/30 11:03:12;;;;;;;1.93;1.73;;;24.60;83.00;;;;;;4934558;29;20813;-71
2021/05/30 11:05:50;;;;;;;1.63;1.53;;;23.90;74.90;;;;;;4935904;29;20418;-72
2021/05/30 11:08:31;;;;;;;2.00;1.90;;;24.30;81.40;;;;;;4935878;29;20519;-74
2021/05/30 11:11:25;;;;;;;2.63;2.07;;;25.10;78.50;;;;;;4935005;29;20425;-72
2021/05/30 11:13:55;;;;;;;2.83;2.10;;;25.30;77.10;;;;;;4935155;29;20429;-73
2021/05/30 11:16:25;;;;;;;2.37;2.07;;;25.80;75.20;;;;;;4935639;29;20414;-73
2021/05/30 11:19:09;;;;;;;4.93;2.27;;;26.00;79.40;;;;;;4935872;29;20414;-74
2021/05/30 11:21:45;;;;;;;2.17;1.97;;;25.70;71.20;;;;;;4928097;29;20466;-72
2021/05/30 11:24:19;;;;;;;2.07;1.87;;;26.30;72.60;;;;;;4915420;29;20444;-74
2021/05/30 11:26:58;;;;;;;2.40;2.20;;;26.80;70.70;;;;;;4916786;29;20422;-73
2021/05/30 11:29:25;;;;;;;3.00;2.70;;;27.10;73.50;;;;;;4916782;29;20473;-74
2021/05/30 11:31:51;;;;;;;5.20;2.60;;;27.00;71.40;;;;;;4916879;29;20423;-74
2021/05/30 11:34:18;;;;;;;2.83;2.60;;;26.70;70.40;;;;;;4916414;29;20541;-75
2021/05/30 11:36:45;;;;;;;3.60;2.57;;;26.70;69.80;;;;;;4916869;29;20429;-73
2021/05/30 11:39:19;;;;;;;2.63;2.43;;;27.50;69.40;;;;;;4915664;29;20426;-73
2021/05/30 11:41:47;;;;;;;4.83;2.37;;;27.20;70.80;;;;;;4916660;29;20469;-75
2021/05/30 11:44:15;;;;;;;3.07;2.87;;;27.80;67.50;;;;;;4918437;29;20517;-74
2021/05/30 11:46:46;;;;;;;2.17;1.97;;;26.90;66.00;;;;;;4920369;29;20461;-74
2021/05/30 11:49:18;;;;;;;2.13;1.93;;;26.30;68.40;;;;;;4920355;29;20497;-74
2021/05/30 11:51:45;;;;;;;2.50;2.20;;;26.70;65.40;;;;;;4920602;29;20934;-73
2021/05/30 11:54:10;;;;;;;3.10;2.60;;;26.20;62.00;;;;;;4920020;29;20441;-73
2021/05/30 11:56:41;;;;;;;3.10;2.50;;;26.20;62.70;;;;;;4920236;29;20425;-72
2021/05/30 11:59:07;;;;;;;5.20;2.73;;;27.20;72.20;;;;;;4934799;29;20182;-72
2021/05/30 12:01:50;;;;;;;2.77;2.57;;;27.30;60.70;;;;;;4920063;29;20918;-73
2021/05/30 12:04:22;;;;;;;2.33;2.13;;;27.70;69.00;;;;;;4919746;29;20212;-74
2021/05/30 12:06:48;;;;;;;3.37;3.07;;;28.40;60.30;;;;;;4920132;29;20422;-74
2021/05/30 12:09:14;;;;;;;2.23;2.13;;;26.50;58.60;;;;;;4920235;29;20528;-74
2021/05/30 12:11:40;;;;;;;3.17;2.33;;;26.60;59.40;;;;;;4919933;29;20426;-73
2021/05/30 12:14:07;;;;;;;3.27;2.63;;;26.20;59.40;;;;;;4918314;29;20631;-74
2021/05/30 12:16:33;;;;;;;2.10;1.93;;;27.00;66.50;;;;;;4919706;29;20925;-75
2021/05/30 12:19:00;;;;;;;3.07;2.60;;;28.20;62.50;;;;;;4919821;29;20907;-75
2021/05/30 12:21:39;;;;;;;2.87;2.10;;;27.20;64.00;;;;;;4919928;29;20486;-75
2021/05/30 12:24:06;;;;;;;3.60;2.47;;;26.90;57.90;;;;;;4919476;29;20434;-76
2021/05/30 12:26:32;;;;;;;2.50;2.30;;;28.00;59.10;;;;;;4919747;29;20468;-76
2021/05/30 12:28:58;;;;;;;2.50;2.30;;;28.20;56.90;;;;;;4919582;29;20514;-76
2021/05/30 12:31:24;;;;;;;3.00;2.10;;;27.90;56.90;;;;;;4919739;29;20182;-76
2021/05/30 12:33:57;;;;;;;4.40;3.03;;;27.90;66.80;;;;;;4919392;29;20269;-75
2021/05/30 12:36:35;;;;;;;2.63;2.27;;;28.10;59.00;;;;;;4919766;29;20660;-76
2021/05/30 12:39:13;;;;;;;2.60;2.40;;;27.50;59.80;;;;;;4919535;29;20421;-76
2021/05/30 12:42:03;;;;;;;3.47;2.40;;;27.00;59.80;;;;;;4919654;29;20473;-76